createdAt,value
2017-11-05T00:00:07.101Z,99.90
2017-11-05T00:01:09.618Z,99.90
2017-11-05T00:02:12.882Z,99.90
2017-11-05T00:03:15.373Z,99.90
2017-11-05T00:04:18.788Z,99.90
2017-11-05T00:05:21.256Z,99.90
2017-11-05T00:06:24.522Z,99.90
2017-11-05T00:07:26.985Z,99.90
2017-11-05T00:08:30.230Z,99.90
2017-11-05T00:09:32.747Z,99.90
2017-11-05T00:10:35.218Z,99.90
2017-11-05T00:11:38.475Z,99.90
2017-11-05T00:12:41.714Z,99.90
2017-11-05T00:13:44.987Z,99.90
2017-11-05T00:14:47.831Z,99.90
2017-11-05T00:15:50.303Z,99.90
2017-11-05T00:16:53.570Z,99.90
2017-11-05T00:17:56.074Z,99.90
2017-11-05T00:18:59.314Z,99.90
2017-11-05T00:20:02.562Z,99.90
2017-11-05T00:21:05.778Z,99.90
2017-11-05T00:22:08.267Z,99.90
2017-11-05T00:23:10.722Z,99.90
2017-11-05T00:24:13.179Z,99.90
2017-11-05T00:25:15.662Z,99.90
2017-11-05T00:26:18.118Z,99.90
2017-11-05T00:27:21.402Z,99.90
2017-11-05T00:28:24.065Z,99.90
2017-11-05T00:29:28.045Z,99.90
2017-11-05T00:30:31.281Z,99.90
2017-11-05T00:31:33.783Z,99.90
2017-11-05T00:32:37.152Z,99.90
2017-11-05T00:33:40.393Z,99.90
2017-11-05T00:34:43.712Z,99.90
2017-11-05T00:35:46.169Z,99.90
2017-11-05T00:36:49.399Z,99.90
2017-11-05T00:37:51.926Z,99.90
2017-11-05T00:38:54.527Z,99.90
2017-11-05T00:39:57.694Z,99.90
2017-11-05T00:41:00.165Z,99.90
2017-11-05T00:42:02.643Z,99.90
2017-11-05T00:43:05.934Z,99.90
2017-11-05T00:44:08.552Z,99.90
2017-11-05T00:45:11.026Z,99.90
2017-11-05T00:46:14.466Z,99.90
2017-11-05T00:47:16.957Z,99.90
2017-11-05T00:48:19.480Z,99.90
2017-11-05T00:49:21.947Z,99.90
2017-11-05T00:50:24.546Z,99.90
2017-11-05T00:51:27.079Z,99.90
2017-11-05T00:52:29.556Z,99.90
2017-11-05T00:53:32.816Z,99.90
2017-11-05T00:54:35.286Z,99.90
2017-11-05T00:55:37.771Z,99.90
2017-11-05T00:56:40.238Z,99.90
2017-11-05T00:57:43.518Z,99.90
2017-11-05T00:58:46.755Z,99.90
2017-11-05T00:59:50.018Z,99.90
2017-11-05T01:00:52.672Z,99.90
2017-11-05T01:01:55.170Z,99.90
2017-11-05T01:02:57.866Z,99.90
2017-11-05T01:04:01.149Z,99.90
2017-11-05T01:05:03.761Z,99.90
2017-11-05T01:06:07.202Z,99.90
2017-11-05T01:07:10.411Z,99.90
2017-11-05T01:08:12.870Z,99.90
2017-11-05T01:09:16.131Z,99.90
2017-11-05T01:10:19.138Z,99.90
2017-11-05T01:11:22.651Z,99.90
2017-11-05T01:12:25.404Z,99.90
2017-11-05T01:13:27.986Z,99.90
2017-11-05T01:14:30.602Z,99.90
2017-11-05T01:15:34.079Z,99.90
2017-11-05T01:16:37.511Z,99.90
2017-11-05T01:17:40.272Z,99.90
2017-11-05T01:18:42.774Z,99.90
2017-11-05T01:19:45.278Z,99.90
2017-11-05T01:20:47.970Z,99.90
2017-11-05T01:21:50.486Z,99.90
2017-11-05T01:22:52.967Z,99.90
2017-11-05T01:23:55.418Z,99.90
2017-11-05T01:24:58.021Z,99.90
2017-11-05T01:26:00.508Z,99.90
2017-11-05T01:27:03.028Z,99.90
2017-11-05T01:28:05.488Z,99.90
2017-11-05T01:29:08.164Z,99.90
2017-11-05T01:30:10.694Z,99.90
2017-11-05T01:31:13.162Z,99.90
2017-11-05T01:32:16.467Z,99.90
2017-11-05T01:33:19.767Z,99.90
2017-11-05T01:34:22.254Z,99.90
2017-11-05T01:35:25.475Z,99.90
2017-11-05T01:36:27.996Z,99.90
2017-11-05T01:37:31.786Z,99.90
2017-11-05T01:38:35.018Z,99.90
2017-11-05T01:39:38.298Z,99.90
2017-11-05T01:40:41.222Z,99.90
2017-11-05T01:41:43.876Z,99.90
2017-11-05T01:42:46.322Z,99.90
2017-11-05T01:43:48.837Z,99.90
2017-11-05T01:44:52.295Z,99.90
2017-11-05T01:45:54.770Z,99.90
2017-11-05T01:46:57.267Z,99.90
2017-11-05T01:47:59.788Z,99.90
2017-11-05T01:49:02.246Z,99.90
2017-11-05T01:50:04.863Z,99.90
2017-11-05T01:51:08.088Z,99.90
2017-11-05T01:52:10.552Z,99.90
2017-11-05T01:53:13.065Z,99.90
2017-11-05T01:54:15.621Z,99.90
2017-11-05T01:55:18.174Z,99.90
2017-11-05T01:56:20.760Z,99.90
2017-11-05T01:57:23.328Z,99.90
2017-11-05T01:58:26.048Z,99.90
2017-11-05T01:59:28.601Z,99.90
2017-11-05T02:00:31.095Z,99.90
2017-11-05T02:01:33.589Z,99.90
2017-11-05T02:02:36.073Z,99.90
2017-11-05T02:03:38.529Z,99.90
2017-11-05T02:04:41.053Z,99.90
2017-11-05T02:05:44.286Z,99.90
2017-11-05T02:06:47.757Z,99.90
2017-11-05T02:07:50.940Z,99.90
2017-11-05T02:08:54.220Z,99.90
2017-11-05T02:09:57.496Z,99.90
2017-11-05T02:11:00.160Z,99.90
2017-11-05T02:12:02.676Z,99.90
2017-11-05T02:13:05.165Z,99.90
2017-11-05T02:14:07.738Z,99.90
2017-11-05T02:15:10.314Z,99.90
2017-11-05T02:16:12.824Z,99.90
2017-11-05T02:17:15.509Z,99.90
2017-11-05T02:18:18.275Z,99.90
2017-11-05T02:19:20.727Z,99.90
2017-11-05T02:20:23.343Z,99.90
2017-11-05T02:21:25.903Z,99.90
2017-11-05T02:22:28.390Z,99.90
2017-11-05T02:23:32.320Z,99.90
2017-11-05T02:24:35.812Z,99.90
2017-11-05T02:25:38.428Z,99.90
2017-11-05T02:26:40.982Z,99.90
2017-11-05T02:27:43.634Z,99.90
2017-11-05T02:28:46.101Z,99.90
2017-11-05T02:29:48.641Z,99.90
2017-11-05T02:30:51.338Z,99.90
2017-11-05T02:31:54.576Z,99.90
2017-11-05T02:32:57.257Z,99.90
2017-11-05T02:33:59.720Z,99.90
2017-11-05T02:35:02.278Z,99.90
2017-11-05T02:36:05.517Z,99.90
2017-11-05T02:37:08.816Z,99.90
2017-11-05T02:38:11.289Z,99.90
2017-11-05T02:39:14.638Z,99.90
2017-11-05T02:40:17.133Z,99.90
2017-11-05T02:41:19.756Z,99.90
2017-11-05T02:42:22.234Z,99.90
2017-11-05T02:43:24.703Z,99.90
2017-11-05T02:44:27.192Z,99.90
2017-11-05T02:45:29.694Z,99.90
2017-11-05T02:46:32.253Z,99.90
2017-11-05T02:47:34.799Z,99.90
2017-11-05T02:48:38.088Z,99.90
2017-11-05T02:49:40.659Z,99.90
2017-11-05T02:50:43.162Z,99.90
2017-11-05T02:51:45.937Z,99.90
2017-11-05T02:52:48.464Z,99.90
2017-11-05T02:53:51.065Z,99.90
2017-11-05T02:54:54.453Z,99.90
2017-11-05T02:55:56.958Z,99.90
2017-11-05T02:56:59.447Z,99.90
2017-11-05T02:58:02.066Z,99.90
2017-11-05T02:59:04.538Z,99.90
2017-11-05T03:00:07.188Z,99.90
2017-11-05T03:01:09.718Z,99.90
2017-11-05T03:02:12.260Z,99.90
2017-11-05T03:03:15.577Z,99.90
2017-11-05T03:04:18.693Z,99.90
2017-11-05T03:05:21.215Z,99.90
2017-11-05T03:06:24.736Z,99.90
2017-11-05T03:07:27.196Z,99.90
2017-11-05T03:08:29.756Z,99.90
2017-11-05T03:09:33.010Z,99.90
2017-11-05T03:10:36.272Z,99.90
2017-11-05T03:11:38.928Z,99.90
2017-11-05T03:12:41.454Z,99.90
2017-11-05T03:13:43.987Z,99.90
2017-11-05T03:14:46.464Z,99.90
2017-11-05T03:15:48.930Z,99.90
2017-11-05T03:16:51.382Z,99.90
2017-11-05T03:17:53.858Z,99.90
2017-11-05T03:18:56.314Z,99.90
2017-11-05T03:19:58.787Z,99.90
2017-11-05T03:21:01.254Z,99.90
2017-11-05T03:22:03.722Z,99.90
2017-11-05T03:23:06.217Z,99.90
2017-11-05T03:24:08.682Z,99.90
2017-11-05T03:25:11.147Z,99.90
2017-11-05T03:26:13.674Z,99.90
2017-11-05T03:27:16.146Z,99.90
2017-11-05T03:28:19.406Z,99.90
2017-11-05T03:29:21.870Z,99.90
2017-11-05T03:30:24.352Z,99.90
2017-11-05T03:31:26.830Z,99.90
2017-11-05T03:32:29.927Z,99.90
2017-11-05T03:33:32.427Z,99.90
2017-11-05T03:34:35.671Z,99.90
2017-11-05T03:35:38.929Z,99.90
2017-11-05T03:36:41.441Z,99.90
2017-11-05T03:37:44.836Z,99.90
2017-11-05T03:38:47.314Z,99.90
2017-11-05T03:39:50.852Z,99.90
2017-11-05T03:40:54.278Z,99.90
2017-11-05T03:41:56.889Z,99.90
2017-11-05T03:43:00.188Z,99.90
2017-11-05T03:44:02.660Z,99.90
2017-11-05T03:45:05.230Z,99.90
2017-11-05T03:46:08.440Z,99.90
2017-11-05T03:47:10.882Z,99.90
2017-11-05T03:48:14.132Z,99.90
2017-11-05T03:49:16.606Z,99.90
2017-11-05T03:50:19.101Z,99.90
2017-11-05T03:51:21.580Z,99.90
2017-11-05T03:52:24.040Z,99.90
2017-11-05T03:53:27.276Z,99.90
2017-11-05T03:54:30.602Z,99.90
2017-11-05T03:55:33.107Z,99.90
2017-11-05T03:56:35.616Z,99.90
2017-11-05T03:57:38.137Z,99.90
2017-11-05T03:58:40.638Z,99.90
2017-11-05T03:59:43.160Z,99.90
2017-11-05T04:00:45.633Z,99.90
2017-11-05T04:01:48.110Z,99.90
2017-11-05T04:02:50.581Z,99.90
2017-11-05T04:03:53.047Z,99.90
2017-11-05T04:04:56.300Z,99.90
2017-11-05T04:05:59.519Z,99.90
2017-11-05T04:07:02.791Z,99.90
2017-11-05T04:08:06.125Z,99.90
2017-11-05T04:09:08.647Z,99.90
2017-11-05T04:10:12.355Z,99.90
2017-11-05T04:11:14.829Z,99.90
2017-11-05T04:12:17.324Z,99.90
2017-11-05T04:13:19.885Z,99.90
2017-11-05T04:14:22.429Z,99.90
2017-11-05T04:15:24.895Z,99.90
2017-11-05T04:16:27.387Z,99.90
2017-11-05T04:17:29.901Z,99.90
2017-11-05T04:18:32.404Z,99.90
2017-11-05T04:19:36.095Z,99.90
2017-11-05T04:20:38.618Z,99.90
2017-11-05T04:21:41.086Z,99.90
2017-11-05T04:22:43.547Z,99.90
2017-11-05T04:23:46.014Z,99.90
2017-11-05T04:24:48.516Z,99.90
2017-11-05T04:25:51.014Z,99.90
2017-11-05T04:26:54.250Z,99.90
2017-11-05T04:27:57.513Z,99.90
2017-11-05T04:29:00.040Z,99.90
2017-11-05T04:30:03.280Z,99.90
2017-11-05T04:31:05.767Z,99.90
2017-11-05T04:32:08.315Z,99.90
2017-11-05T04:33:11.538Z,99.90
2017-11-05T04:34:14.797Z,99.90
2017-11-05T04:35:18.014Z,99.90
2017-11-05T04:36:20.510Z,99.90
2017-11-05T04:37:22.962Z,99.90
2017-11-05T04:38:25.474Z,99.90
2017-11-05T04:39:27.938Z,99.90
2017-11-05T04:40:31.205Z,99.90
2017-11-05T04:41:33.698Z,99.90
2017-11-05T04:42:36.936Z,99.90
2017-11-05T04:43:39.384Z,99.90
2017-11-05T04:44:41.871Z,99.90
2017-11-05T04:45:44.337Z,99.90
2017-11-05T04:46:46.817Z,99.90
2017-11-05T04:47:49.302Z,99.90
2017-11-05T04:48:51.767Z,99.90
2017-11-05T04:49:54.229Z,99.90
2017-11-05T04:50:56.710Z,99.90
2017-11-05T04:51:59.205Z,99.90
2017-11-05T04:53:01.681Z,99.90
2017-11-05T04:54:04.919Z,99.90
2017-11-05T04:55:07.390Z,99.90
2017-11-05T04:56:09.866Z,99.90
2017-11-05T04:57:12.424Z,99.90
2017-11-05T04:58:14.891Z,99.90
2017-11-05T04:59:17.365Z,99.90
2017-11-05T05:00:19.849Z,99.90
2017-11-05T05:01:22.303Z,99.90
2017-11-05T05:02:25.538Z,99.90
2017-11-05T05:03:28.782Z,99.90
2017-11-05T05:04:32.010Z,99.90
2017-11-05T05:05:34.475Z,99.90
2017-11-05T05:06:36.989Z,99.90
2017-11-05T05:07:39.453Z,99.90
2017-11-05T05:08:41.924Z,99.90
2017-11-05T05:09:45.146Z,99.90
2017-11-05T05:10:47.624Z,99.90
2017-11-05T05:11:50.239Z,99.90
2017-11-05T05:12:53.477Z,99.90
2017-11-05T05:13:55.942Z,99.90
2017-11-05T05:14:58.416Z,99.90
2017-11-05T05:16:01.633Z,99.90
2017-11-05T05:17:04.119Z,99.90
2017-11-05T05:18:06.657Z,99.90
2017-11-05T05:19:09.123Z,99.90
2017-11-05T05:20:11.582Z,99.90
2017-11-05T05:21:14.046Z,99.90
2017-11-05T05:22:16.530Z,99.90
2017-11-05T05:23:18.990Z,99.90
2017-11-05T05:24:21.453Z,99.90
2017-11-05T05:25:24.673Z,99.90
2017-11-05T05:26:27.147Z,99.90
2017-11-05T05:27:29.629Z,99.90
2017-11-05T05:28:32.901Z,99.90
2017-11-05T05:29:35.370Z,99.90
2017-11-05T05:30:37.855Z,99.90
2017-11-05T05:31:40.295Z,99.90
2017-11-05T05:32:42.832Z,99.90
2017-11-05T05:33:45.314Z,99.90
2017-11-05T05:34:48.548Z,99.90
2017-11-05T05:35:51.038Z,99.90
2017-11-05T05:36:53.537Z,99.90
2017-11-05T05:37:56.054Z,99.90
2017-11-05T05:38:58.509Z,99.90
2017-11-05T05:40:00.991Z,99.90
2017-11-05T05:41:04.215Z,99.90
2017-11-05T05:42:07.490Z,99.90
2017-11-05T05:43:09.974Z,99.90
2017-11-05T05:44:12.482Z,99.90
2017-11-05T05:45:14.946Z,99.90
2017-11-05T05:46:18.192Z,99.90
2017-11-05T05:47:21.444Z,99.90
2017-11-05T05:48:23.961Z,99.90
2017-11-05T05:49:27.199Z,99.90
2017-11-05T05:50:30.438Z,99.90
2017-11-05T05:51:33.654Z,99.90
2017-11-05T05:52:36.218Z,99.90
2017-11-05T05:53:39.462Z,99.90
2017-11-05T05:54:41.917Z,99.90
2017-11-05T05:55:44.433Z,99.90
2017-11-05T05:56:46.873Z,99.90
2017-11-05T05:57:49.335Z,99.90
2017-11-05T05:58:51.876Z,99.90
2017-11-05T05:59:55.117Z,99.90
2017-11-05T06:00:58.343Z,99.90
2017-11-05T06:02:00.819Z,99.90
2017-11-05T06:03:03.286Z,99.90
2017-11-05T06:04:05.786Z,99.90
2017-11-05T06:05:08.386Z,99.90
2017-11-05T06:06:10.905Z,99.90
2017-11-05T06:07:14.611Z,99.90
2017-11-05T06:08:17.909Z,99.90
2017-11-05T06:09:20.424Z,99.90
2017-11-05T06:10:22.922Z,99.90
2017-11-05T06:11:26.147Z,99.90
2017-11-05T06:12:28.640Z,99.90
2017-11-05T06:13:31.166Z,99.90
2017-11-05T06:14:33.682Z,99.90
2017-11-05T06:15:36.181Z,99.90
2017-11-05T06:16:38.678Z,99.90
2017-11-05T06:17:41.159Z,99.90
2017-11-05T06:18:43.661Z,99.90
2017-11-05T06:19:46.916Z,99.90
2017-11-05T06:20:49.444Z,99.90
2017-11-05T06:21:51.922Z,99.90
2017-11-05T06:22:54.498Z,99.90
2017-11-05T06:23:56.974Z,99.90
2017-11-05T06:24:59.448Z,99.90
2017-11-05T06:26:01.923Z,99.90
2017-11-05T06:27:04.388Z,99.90
2017-11-05T06:28:06.852Z,99.90
2017-11-05T06:30:08.483Z,99.90
2017-11-05T06:31:11.006Z,99.90
2017-11-05T06:32:13.485Z,99.90
2017-11-05T06:33:15.949Z,99.90
2017-11-05T06:34:19.171Z,99.90
2017-11-05T06:35:21.668Z,99.90
2017-11-05T06:36:24.150Z,99.90
2017-11-05T06:37:26.659Z,99.90
2017-11-05T06:38:29.914Z,99.90
2017-11-05T06:39:32.381Z,99.90
2017-11-05T06:40:34.958Z,99.90
2017-11-05T06:41:38.245Z,99.90
2017-11-05T06:42:40.766Z,99.90
2017-11-05T06:43:43.280Z,99.90
2017-11-05T06:44:45.745Z,99.90
2017-11-05T06:45:48.212Z,99.90
2017-11-05T06:46:50.689Z,99.90
2017-11-05T06:47:53.143Z,99.90
2017-11-05T06:48:56.387Z,99.90
2017-11-05T06:49:59.620Z,99.90
2017-11-05T06:51:02.064Z,99.90
2017-11-05T06:52:05.337Z,99.90
2017-11-05T06:53:07.806Z,99.90
2017-11-05T06:54:10.270Z,99.90
2017-11-05T06:55:12.739Z,99.90
2017-11-05T06:56:15.224Z,99.90
2017-11-05T06:57:17.753Z,99.90
2017-11-05T06:58:20.227Z,99.90
2017-11-05T06:59:22.699Z,99.90
2017-11-05T07:00:25.170Z,99.90
2017-11-05T07:01:27.632Z,99.90
2017-11-05T07:02:30.893Z,99.90
2017-11-05T07:03:33.374Z,99.90
2017-11-05T07:04:35.841Z,99.90
2017-11-05T07:05:38.326Z,99.90
2017-11-05T07:06:40.874Z,99.90
2017-11-05T07:07:44.142Z,99.90
2017-11-05T07:08:46.618Z,99.90
2017-11-05T07:09:49.072Z,99.90
2017-11-05T07:10:52.421Z,99.90
2017-11-05T07:11:54.921Z,99.90
2017-11-05T07:12:57.466Z,99.90
2017-11-05T07:13:59.951Z,99.90
2017-11-05T07:15:02.432Z,99.90
2017-11-05T07:16:04.942Z,99.90
2017-11-05T07:17:07.423Z,99.90
2017-11-05T07:18:09.897Z,99.90
2017-11-05T07:19:12.390Z,99.90
2017-11-05T07:20:14.880Z,99.90
2017-11-05T07:21:17.349Z,99.90
2017-11-05T07:22:19.804Z,99.90
2017-11-05T07:23:22.273Z,99.90
2017-11-05T07:24:24.756Z,99.90
2017-11-05T07:25:27.254Z,99.90
2017-11-05T07:26:30.487Z,99.90
2017-11-05T07:27:33.032Z,99.90
2017-11-05T07:28:36.270Z,99.90
2017-11-05T07:29:39.495Z,99.90
2017-11-05T07:30:41.992Z,99.90
2017-11-05T07:31:44.452Z,99.90
2017-11-05T07:32:46.910Z,99.90
2017-11-05T07:33:49.365Z,99.90
2017-11-05T07:34:51.837Z,99.90
2017-11-05T07:35:55.093Z,99.90
2017-11-05T07:36:57.557Z,99.90
2017-11-05T07:38:00.023Z,99.90
2017-11-05T07:39:03.248Z,99.90
2017-11-05T07:40:07.209Z,99.90
2017-11-05T07:41:09.678Z,99.90
2017-11-05T07:42:12.154Z,99.90
2017-11-05T07:43:14.629Z,99.90
2017-11-05T07:44:17.087Z,99.90
2017-11-05T07:45:19.551Z,99.90
2017-11-05T07:46:22.772Z,99.90
2017-11-05T07:47:25.232Z,99.90
2017-11-05T07:48:27.705Z,99.90
2017-11-05T07:49:30.166Z,99.90
2017-11-05T07:50:33.389Z,99.90
2017-11-05T07:51:36.650Z,99.90
2017-11-05T07:52:39.898Z,99.90
2017-11-05T07:53:43.123Z,99.90
2017-11-05T07:54:46.388Z,99.90
2017-11-05T07:55:48.867Z,99.90
2017-11-05T07:56:51.446Z,99.90
2017-11-05T07:57:53.910Z,99.90
2017-11-05T07:58:56.367Z,99.90
2017-11-05T07:59:59.634Z,99.90
2017-11-05T08:01:02.137Z,99.90
2017-11-05T08:02:05.415Z,99.90
2017-11-05T08:03:07.891Z,99.90
2017-11-05T08:04:10.387Z,99.90
2017-11-05T08:05:12.895Z,99.90
2017-11-05T08:06:15.399Z,99.90
2017-11-05T08:07:18.687Z,99.90
2017-11-05T08:08:21.130Z,99.90
2017-11-05T08:09:25.114Z,99.90
2017-11-05T08:10:28.371Z,99.90
2017-11-05T08:11:30.889Z,99.90
2017-11-05T08:12:34.116Z,99.90
2017-11-05T08:13:37.387Z,99.90
2017-11-05T08:14:39.970Z,99.90
2017-11-05T08:15:42.846Z,99.90
2017-11-05T08:16:45.340Z,99.90
2017-11-05T08:17:47.902Z,99.90
2017-11-05T08:18:50.370Z,99.90
2017-11-05T08:19:52.850Z,99.90
2017-11-05T08:20:55.349Z,99.90
2017-11-05T08:21:58.659Z,99.90
2017-11-05T08:23:01.126Z,99.90
2017-11-05T08:24:04.373Z,99.90
2017-11-05T08:25:07.630Z,99.90
2017-11-05T08:26:10.090Z,99.90
2017-11-05T08:27:12.584Z,99.90
2017-11-05T08:28:15.107Z,99.90
2017-11-05T08:29:17.573Z,99.90
2017-11-05T08:30:20.070Z,99.90
2017-11-05T08:31:22.531Z,99.90
2017-11-05T08:32:25.092Z,99.90
2017-11-05T08:33:28.354Z,99.90
2017-11-05T08:34:30.824Z,99.90
2017-11-05T08:35:33.346Z,99.90
2017-11-05T08:36:35.809Z,99.90
2017-11-05T08:37:38.353Z,99.90
2017-11-05T08:38:40.813Z,99.90
2017-11-05T08:39:43.274Z,99.90
2017-11-05T08:40:46.514Z,99.90
2017-11-05T08:41:49.822Z,99.90
2017-11-05T08:42:52.322Z,99.90
2017-11-05T08:43:54.815Z,99.80
2017-11-05T08:44:58.049Z,99.50
2017-11-05T08:46:01.286Z,99.40
2017-11-05T08:47:05.071Z,99.50
2017-11-05T08:48:07.567Z,99.30
2017-11-05T08:49:10.860Z,99.70
2017-11-05T08:50:13.329Z,99.30
2017-11-05T08:51:15.901Z,99.30
2017-11-05T08:52:18.365Z,99.40
2017-11-05T08:53:20.877Z,99.30
2017-11-05T08:54:23.337Z,99.40
2017-11-05T08:55:26.574Z,99.30
2017-11-05T08:56:29.138Z,99.30
2017-11-05T08:57:31.595Z,99.40
2017-11-05T08:58:34.127Z,99.40
2017-11-05T08:59:37.347Z,99.70
2017-11-05T09:00:39.810Z,99.90
2017-11-05T09:01:42.284Z,99.60
2017-11-05T09:02:44.750Z,99.80
2017-11-05T09:03:47.282Z,99.80
2017-11-05T09:04:49.771Z,99.60
2017-11-05T09:05:52.227Z,99.70
2017-11-05T09:06:54.690Z,99.60
2017-11-05T09:07:57.929Z,99.60
2017-11-05T09:09:01.182Z,99.60
2017-11-05T09:10:03.667Z,99.60
2017-11-05T09:11:06.146Z,99.70
2017-11-05T09:12:08.655Z,99.70
2017-11-05T09:13:11.115Z,99.40
2017-11-05T09:14:13.582Z,99.30
2017-11-05T09:15:16.044Z,99.30
2017-11-05T09:16:18.537Z,99.30
2017-11-05T09:17:21.778Z,99.20
2017-11-05T09:18:25.003Z,99.30
2017-11-05T09:19:27.477Z,99.20
2017-11-05T09:20:29.988Z,99.50
2017-11-05T09:21:32.462Z,99.10
2017-11-05T09:22:34.928Z,99.10
2017-11-05T09:23:38.167Z,98.90
2017-11-05T09:24:41.447Z,99.00
2017-11-05T09:25:44.144Z,99.00
2017-11-05T09:26:47.457Z,98.70
2017-11-05T09:27:49.922Z,98.70
2017-11-05T09:28:52.393Z,98.60
2017-11-05T09:29:54.970Z,98.80
2017-11-05T09:30:57.500Z,99.00
2017-11-05T09:31:59.964Z,98.90
2017-11-05T09:33:02.442Z,98.90
2017-11-05T09:34:04.948Z,98.70
2017-11-05T09:35:07.425Z,98.60
2017-11-05T09:36:09.910Z,98.80
2017-11-05T09:37:13.192Z,98.60
2017-11-05T09:38:15.682Z,98.50
2017-11-05T09:39:18.949Z,98.30
2017-11-05T09:40:21.413Z,98.20
2017-11-05T09:41:23.884Z,98.40
2017-11-05T09:42:26.870Z,98.20
2017-11-05T09:43:29.437Z,98.30
2017-11-05T09:44:32.819Z,98.40
2017-11-05T09:45:35.311Z,98.40
2017-11-05T09:46:38.546Z,98.20
2017-11-05T09:47:41.769Z,98.20
2017-11-05T09:48:44.228Z,98.10
2017-11-05T09:49:46.710Z,98.50
2017-11-05T09:50:49.197Z,98.00
2017-11-05T09:51:51.675Z,98.40
2017-11-05T09:52:54.145Z,98.50
2017-11-05T09:53:56.653Z,98.10
2017-11-05T09:54:59.137Z,98.20
2017-11-05T09:56:01.690Z,98.30
2017-11-05T09:57:04.923Z,98.20
2017-11-05T09:58:08.218Z,98.20
2017-11-05T09:59:10.709Z,98.20
2017-11-05T10:00:14.053Z,98.00
2017-11-05T10:01:17.318Z,97.90
2017-11-05T10:02:19.873Z,97.90
2017-11-05T10:03:22.330Z,98.10
2017-11-05T10:04:25.565Z,98.00
2017-11-05T10:05:28.817Z,98.00
2017-11-05T10:06:32.078Z,98.00
2017-11-05T10:07:34.602Z,98.00
2017-11-05T10:08:37.140Z,98.10
2017-11-05T10:09:39.626Z,97.90
2017-11-05T10:10:42.104Z,97.70
2017-11-05T10:11:44.586Z,97.70
2017-11-05T10:12:47.826Z,97.80
2017-11-05T10:13:51.094Z,98.00
2017-11-05T10:14:53.574Z,97.90
2017-11-05T10:15:56.062Z,97.90
2017-11-05T10:16:58.549Z,97.80
2017-11-05T10:18:01.794Z,97.60
2017-11-05T10:19:05.016Z,97.70
2017-11-05T10:20:07.582Z,97.40
2017-11-05T10:21:10.068Z,97.40
2017-11-05T10:22:12.530Z,97.50
2017-11-05T10:23:15.063Z,97.40
2017-11-05T10:24:17.528Z,97.20
2017-11-05T10:25:20.016Z,97.30
2017-11-05T10:26:22.490Z,97.30
2017-11-05T10:27:25.072Z,97.10
2017-11-05T10:28:27.718Z,97.10
2017-11-05T10:29:30.189Z,97.40
2017-11-05T10:30:33.422Z,96.80
2017-11-05T10:31:36.693Z,96.70
2017-11-05T10:32:39.183Z,96.60
2017-11-05T10:33:41.693Z,96.70
2017-11-05T10:34:44.280Z,96.70
2017-11-05T10:35:46.747Z,96.70
2017-11-05T10:36:49.220Z,96.40
2017-11-05T10:37:51.797Z,96.30
2017-11-05T10:38:54.284Z,96.40
2017-11-05T10:39:56.746Z,96.50
2017-11-05T10:40:59.198Z,96.30
2017-11-05T10:42:02.618Z,96.20
2017-11-05T10:43:05.070Z,96.10
2017-11-05T10:44:08.318Z,96.20
2017-11-05T10:45:11.534Z,96.30
2017-11-05T10:46:14.049Z,96.30
2017-11-05T10:47:16.507Z,96.20
2017-11-05T10:48:19.732Z,96.50
2017-11-05T10:49:22.999Z,96.40
2017-11-05T10:50:26.249Z,96.30
2017-11-05T10:51:29.504Z,96.50
2017-11-05T10:52:31.970Z,96.50
2017-11-05T10:53:34.435Z,96.50
2017-11-05T10:54:37.674Z,96.80
2017-11-05T10:55:40.903Z,96.80
2017-11-05T10:56:44.166Z,96.80
2017-11-05T10:57:46.803Z,97.00
2017-11-05T10:58:49.284Z,96.90
2017-11-05T10:59:51.846Z,97.10
2017-11-05T11:00:55.512Z,97.20
2017-11-05T11:01:58.021Z,97.20
2017-11-05T11:03:01.293Z,97.20
2017-11-05T11:04:03.775Z,97.20
2017-11-05T11:05:07.033Z,97.10
2017-11-05T11:06:10.281Z,97.10
2017-11-05T11:07:12.785Z,97.10
2017-11-05T11:08:16.009Z,97.40
2017-11-05T11:09:18.471Z,97.40
2017-11-05T11:10:21.318Z,97.40
2017-11-05T11:11:23.778Z,97.30
2017-11-05T11:12:26.300Z,97.30
2017-11-05T11:13:28.822Z,97.30
2017-11-05T11:14:31.285Z,97.50
2017-11-05T11:15:34.524Z,97.60
2017-11-05T11:16:37.769Z,97.90
2017-11-05T11:17:41.127Z,97.70
2017-11-05T11:18:44.383Z,97.60
2017-11-05T11:19:46.894Z,97.60
2017-11-05T11:20:50.149Z,98.10
2017-11-05T11:21:52.693Z,97.80
2017-11-05T11:22:55.180Z,98.20
2017-11-05T11:23:58.458Z,98.20
2017-11-05T11:25:00.922Z,98.10
2017-11-05T11:26:03.437Z,98.00
2017-11-05T11:27:05.924Z,98.10
2017-11-05T11:28:08.432Z,98.30
2017-11-05T11:29:11.690Z,98.30
2017-11-05T11:30:14.162Z,98.30
2017-11-05T11:31:16.666Z,98.20
2017-11-05T11:32:19.129Z,98.20
2017-11-05T11:33:21.990Z,98.00
2017-11-05T11:34:24.446Z,98.30
2017-11-05T11:35:26.907Z,98.20
2017-11-05T11:36:29.399Z,98.20
2017-11-05T11:37:31.862Z,98.20
2017-11-05T11:38:35.105Z,97.90
2017-11-05T11:39:37.591Z,98.20
2017-11-05T11:40:40.065Z,98.80
2017-11-05T11:41:43.426Z,98.00
2017-11-05T11:42:45.977Z,97.90
2017-11-05T11:43:48.488Z,97.80
2017-11-05T11:44:50.964Z,97.80
2017-11-05T11:45:53.530Z,98.10
2017-11-05T11:46:56.764Z,98.00
2017-11-05T11:48:00.027Z,98.40
2017-11-05T11:49:02.533Z,98.10
2017-11-05T11:50:06.818Z,97.90
2017-11-05T11:51:09.332Z,97.80
2017-11-05T11:52:11.802Z,97.80
2017-11-05T11:53:14.299Z,97.40
2017-11-05T11:54:16.814Z,97.10
2017-11-05T11:55:19.281Z,97.10
2017-11-05T11:56:21.736Z,97.20
2017-11-05T11:57:24.294Z,97.10
2017-11-05T11:58:26.839Z,96.80
2017-11-05T11:59:29.322Z,96.80
2017-11-05T12:00:32.581Z,96.40
2017-11-05T12:01:35.053Z,96.40
2017-11-05T12:02:37.518Z,96.20
2017-11-05T12:03:40.750Z,96.10
2017-11-05T12:04:44.068Z,96.00
2017-11-05T12:05:46.550Z,96.00
2017-11-05T12:06:49.015Z,96.00
2017-11-05T12:07:51.494Z,95.90
2017-11-05T12:08:53.978Z,95.80
2017-11-05T12:09:56.462Z,95.80
2017-11-05T12:10:58.964Z,95.90
2017-11-05T12:12:01.427Z,95.90
2017-11-05T12:13:03.914Z,96.00
2017-11-05T12:14:06.381Z,95.90
2017-11-05T12:15:08.895Z,95.60
2017-11-05T12:16:11.413Z,95.90
2017-11-05T12:17:13.939Z,96.00
2017-11-05T12:18:16.407Z,95.80
2017-11-05T12:19:18.992Z,96.10
2017-11-05T12:20:21.495Z,95.80
2017-11-05T12:21:23.998Z,95.80
2017-11-05T12:22:27.269Z,95.90
2017-11-05T12:23:29.785Z,95.80
2017-11-05T12:24:32.274Z,95.70
2017-11-05T12:25:34.738Z,95.90
2017-11-05T12:26:37.265Z,95.90
2017-11-05T12:27:39.731Z,95.80
2017-11-05T12:28:42.197Z,95.80
2017-11-05T12:29:45.453Z,95.70
2017-11-05T12:30:47.993Z,95.70
2017-11-05T12:31:50.455Z,95.70
2017-11-05T12:32:52.953Z,95.90
2017-11-05T12:33:56.184Z,95.80
2017-11-05T12:34:58.656Z,95.80
2017-11-05T12:36:01.136Z,95.80
2017-11-05T12:37:03.743Z,95.90
2017-11-05T12:38:06.999Z,95.80
2017-11-05T12:39:09.462Z,95.80
2017-11-05T12:40:11.961Z,95.90
2017-11-05T12:41:14.414Z,96.00
2017-11-05T12:42:16.884Z,96.10
2017-11-05T12:43:20.110Z,96.10
2017-11-05T12:44:23.363Z,96.30
2017-11-05T12:45:26.619Z,96.30
2017-11-05T12:46:29.866Z,96.20
2017-11-05T12:47:32.393Z,96.20
2017-11-05T12:48:34.909Z,96.40
2017-11-05T12:49:38.145Z,96.20
2017-11-05T12:50:41.519Z,96.30
2017-11-05T12:51:43.973Z,96.20
2017-11-05T12:52:46.444Z,96.20
2017-11-05T12:53:48.935Z,96.20
2017-11-05T12:54:51.395Z,96.30
2017-11-05T12:55:53.882Z,96.30
2017-11-05T12:56:56.447Z,96.30
2017-11-05T12:57:58.899Z,96.30
2017-11-05T12:59:01.362Z,96.20
2017-11-05T13:00:03.840Z,96.30
2017-11-05T13:01:06.323Z,96.50
2017-11-05T13:02:09.567Z,96.30
2017-11-05T13:03:12.858Z,96.40
2017-11-05T13:04:15.314Z,96.40
2017-11-05T13:05:17.807Z,96.40
2017-11-05T13:06:20.320Z,96.50
2017-11-05T13:07:22.754Z,96.50
2017-11-05T13:08:25.223Z,96.50
2017-11-05T13:09:27.782Z,96.50
2017-11-05T13:10:31.122Z,96.40
2017-11-05T13:11:34.339Z,96.50
2017-11-05T13:12:36.803Z,96.50
2017-11-05T13:13:39.282Z,96.60
2017-11-05T13:14:41.746Z,96.50
2017-11-05T13:15:44.246Z,96.60
2017-11-05T13:16:46.707Z,96.80
2017-11-05T13:17:49.160Z,97.10
2017-11-05T13:18:51.930Z,96.80
2017-11-05T13:19:55.195Z,97.20
2017-11-05T13:20:57.713Z,97.10
2017-11-05T13:22:00.942Z,97.30
2017-11-05T13:23:04.209Z,97.40
2017-11-05T13:24:06.676Z,97.30
2017-11-05T13:25:09.149Z,97.40
2017-11-05T13:26:12.204Z,97.50
2017-11-05T13:27:14.694Z,97.60
2017-11-05T13:28:17.973Z,97.80